createdAt,value
2019-02-07T00:02:10.511Z,84.20
2019-02-07T00:04:40.906Z,84.77
2019-02-07T00:07:12.779Z,84.91
2019-02-07T00:09:43.189Z,84.41
2019-02-07T00:12:13.546Z,84.27
2019-02-07T00:14:43.892Z,83.81
2019-02-07T00:17:17.523Z,84.62
2019-02-07T00:19:47.971Z,84.83
2019-02-07T00:22:18.339Z,84.94
2019-02-07T00:24:48.683Z,85.48
2019-02-07T00:27:18.997Z,84.91
2019-02-07T00:29:49.315Z,85.93
2019-02-07T00:32:19.689Z,85.73
2019-02-07T00:34:50.039Z,85.61
2019-02-07T00:37:20.462Z,85.79
2019-02-07T00:39:50.850Z,86.24
2019-02-07T00:42:21.179Z,86.62
2019-02-07T00:44:53.069Z,87.98
2019-02-07T00:47:23.642Z,88.53
2019-02-07T00:49:54.040Z,89.12
2019-02-07T00:52:24.471Z,89.07
2019-02-07T00:54:55.008Z,89.51
2019-02-07T00:57:25.410Z,90.22
2019-02-07T00:59:56.074Z,90.15
2019-02-07T01:02:26.440Z,90.43
2019-02-07T01:04:56.689Z,90.62
2019-02-07T01:07:27.079Z,90.90
2019-02-07T01:09:57.688Z,91.61
2019-02-07T01:12:28.088Z,91.92
2019-02-07T01:15:02.029Z,91.95
2019-02-07T01:17:30.659Z,91.96
2019-02-07T01:20:02.152Z,91.74
2019-02-07T01:22:32.483Z,92.15
2019-02-07T01:25:03.939Z,91.50
2019-02-07T01:27:34.615Z,91.17
2019-02-07T01:30:06.470Z,91.55
2019-02-07T01:32:36.780Z,92.25
2019-02-07T01:35:07.815Z,92.00
2019-02-07T01:37:38.225Z,91.40
2019-02-07T01:40:12.769Z,91.25
2019-02-07T01:42:43.091Z,91.60
2019-02-07T01:45:16.413Z,90.70
2019-02-07T01:47:47.896Z,90.68
2019-02-07T01:50:20.706Z,90.74
2019-02-07T01:52:51.799Z,90.16
2019-02-07T01:55:22.182Z,89.37
2019-02-07T01:57:52.770Z,89.24
2019-02-07T02:00:23.151Z,88.64
2019-02-07T02:02:53.956Z,87.34
2019-02-07T02:05:24.378Z,87.14
2019-02-07T02:07:54.654Z,88.32
2019-02-07T02:10:27.716Z,89.02
2019-02-07T02:12:58.324Z,89.64
2019-02-07T02:15:28.758Z,90.14
2019-02-07T02:17:59.180Z,88.81
2019-02-07T02:20:29.567Z,89.06
2019-02-07T02:22:59.922Z,88.43
2019-02-07T02:25:30.245Z,86.82
2019-02-07T02:28:00.665Z,87.22
2019-02-07T02:30:34.003Z,87.24
2019-02-07T02:33:05.420Z,87.24
2019-02-07T02:35:35.706Z,87.18
2019-02-07T02:38:06.084Z,87.42
2019-02-07T02:40:36.468Z,87.39
2019-02-07T02:43:06.837Z,85.99
2019-02-07T02:45:38.030Z,86.11
2019-02-07T02:48:08.686Z,86.79
2019-02-07T02:50:38.995Z,87.48
2019-02-07T02:53:09.419Z,88.22
2019-02-07T02:55:42.415Z,87.32
2019-02-07T02:58:12.765Z,87.30
2019-02-07T03:01:11.773Z,86.65
2019-02-07T03:04:07.246Z,87.42
2019-02-07T03:06:56.328Z,87.36
2019-02-07T03:09:51.655Z,87.81
2019-02-07T03:12:39.507Z,87.46
2019-02-07T03:15:33.675Z,87.79
2019-02-07T03:18:33.481Z,87.80
2019-02-07T03:21:41.802Z,87.84
2019-02-07T03:24:42.322Z,87.58
2019-02-07T03:27:40.985Z,87.14
2019-02-07T03:33:52.001Z,87.66
2019-02-07T03:36:40.165Z,87.38
2019-02-07T03:39:46.681Z,87.71
2019-02-07T03:42:47.009Z,87.86
2019-02-07T03:45:42.301Z,87.86
2019-02-07T03:48:31.607Z,87.96
2019-02-07T03:51:32.818Z,88.38
2019-02-07T03:54:37.315Z,87.97
2019-02-07T03:57:26.122Z,88.20
2019-02-07T04:00:18.106Z,88.50
2019-02-07T04:03:06.744Z,88.76
2019-02-07T04:05:56.781Z,88.89
2019-02-07T04:08:44.943Z,88.55
2019-02-07T04:11:33.257Z,88.57
2019-02-07T04:14:30.224Z,88.30
2019-02-07T04:17:37.886Z,87.97
2019-02-07T04:20:43.817Z,87.36
2019-02-07T04:23:30.923Z,86.84
2019-02-07T04:26:18.739Z,86.19
2019-02-07T04:28:54.596Z,85.46
2019-02-07T04:31:42.468Z,85.38
2019-02-07T04:34:34.358Z,85.54
2019-02-07T04:37:19.252Z,84.59
2019-02-07T04:40:11.941Z,83.78
2019-02-07T04:43:04.419Z,83.96
2019-02-07T04:45:46.923Z,84.12
2019-02-07T04:48:42.044Z,83.81
2019-02-07T04:51:21.656Z,84.05
2019-02-07T04:54:13.842Z,83.80
2019-02-07T04:57:07.853Z,83.82
2019-02-07T04:59:59.970Z,84.18
2019-02-07T05:02:52.287Z,83.92
2019-02-07T05:05:53.765Z,83.82
2019-02-07T05:08:34.723Z,83.90
2019-02-07T05:11:22.720Z,83.44
2019-02-07T05:14:17.938Z,83.69
2019-02-07T05:17:22.494Z,83.54
2019-02-07T05:20:07.707Z,83.31
2019-02-07T05:22:57.004Z,83.74
2019-02-07T05:25:45.400Z,83.76
2019-02-07T05:28:37.677Z,83.41
2019-02-07T05:31:14.241Z,83.18
2019-02-07T05:34:01.072Z,82.96
2019-02-07T05:36:55.647Z,82.43
2019-02-07T05:39:43.106Z,82.47
2019-02-07T05:42:35.068Z,82.44
2019-02-07T05:45:24.537Z,82.42
2019-02-07T05:48:06.418Z,82.11
2019-02-07T05:50:54.657Z,82.13
2019-02-07T05:53:35.747Z,82.58
2019-02-07T05:56:25.801Z,82.50
2019-02-07T05:59:29.879Z,82.50
2019-02-07T06:02:22.165Z,81.67
2019-02-07T06:05:10.384Z,81.85
2019-02-07T06:08:02.720Z,82.18
2019-02-07T06:10:54.742Z,82.26
2019-02-07T06:13:46.537Z,81.87
2019-02-07T06:16:34.492Z,81.01
2019-02-07T06:19:21.675Z,80.90
2019-02-07T06:22:11.426Z,81.16
2019-02-07T06:24:57.332Z,80.58
2019-02-07T06:27:41.954Z,80.54
2019-02-07T06:30:32.846Z,80.79
2019-02-07T06:33:21.026Z,80.60
2019-02-07T06:36:22.020Z,80.48
2019-02-07T06:39:10.180Z,80.53
2019-02-07T06:41:58.179Z,80.33
2019-02-07T06:44:50.434Z,91.43
2019-02-07T06:47:39.365Z,78.96
2019-02-07T06:50:26.093Z,80.09
2019-02-07T06:53:12.507Z,80.11
2019-02-07T06:56:02.881Z,79.53
2019-02-07T06:58:50.872Z,80.19
2019-02-07T07:01:38.884Z,79.90
2019-02-07T07:04:20.024Z,79.70
2019-02-07T07:07:07.813Z,79.99
2019-02-07T07:09:57.070Z,80.27
2019-02-07T07:12:40.702Z,80.08
2019-02-07T07:15:27.465Z,79.91
2019-02-07T07:18:19.790Z,79.97
2019-02-07T07:21:07.750Z,78.74
2019-02-07T07:24:07.318Z,76.66
2019-02-07T07:26:51.778Z,76.66
2019-02-07T07:29:53.358Z,76.81
2019-02-07T07:32:48.861Z,77.66
2019-02-07T07:35:45.567Z,77.11
2019-02-07T07:38:37.991Z,76.99
2019-02-07T07:41:19.759Z,76.60
2019-02-07T07:44:24.449Z,75.60
2019-02-07T07:47:17.438Z,75.02
2019-02-07T07:50:12.874Z,73.78
2019-02-07T07:53:06.520Z,74.12
2019-02-07T07:55:47.556Z,73.15
2019-02-07T07:58:40.903Z,66.92
2019-02-07T08:01:42.275Z,66.13
2019-02-07T08:04:34.360Z,65.35
2019-02-07T08:07:19.566Z,64.21
2019-02-07T08:10:07.741Z,63.65
2019-02-07T08:13:18.005Z,62.15
2019-02-07T08:16:06.944Z,62.89
2019-02-07T08:19:02.714Z,62.79
2019-02-07T08:22:01.049Z,60.41
2019-02-07T08:24:53.481Z,61.08
2019-02-07T08:27:42.986Z,60.63
2019-02-07T08:30:23.604Z,61.93
2019-02-07T08:33:00.143Z,62.89
2019-02-07T08:36:04.483Z,63.88
2019-02-07T08:38:45.937Z,63.55
2019-02-07T08:41:30.346Z,68.68
2019-02-07T08:44:18.224Z,59.96
2019-02-07T08:47:04.878Z,60.87
2019-02-07T08:49:57.199Z,59.31
2019-02-07T08:52:46.656Z,58.13
2019-02-07T08:55:48.128Z,57.62
2019-02-07T08:58:46.312Z,57.14
2019-02-07T09:01:41.771Z,57.92
2019-02-07T09:04:29.956Z,56.83
2019-02-07T09:07:25.657Z,57.28
2019-02-07T09:10:04.499Z,57.33
2019-02-07T09:13:00.025Z,57.29
2019-02-07T09:15:49.377Z,57.50
2019-02-07T09:18:45.760Z,57.95
2019-02-07T09:21:32.044Z,58.52
2019-02-07T09:24:15.353Z,59.12
2019-02-07T09:27:03.017Z,59.31
2019-02-07T09:29:52.962Z,59.18
2019-02-07T09:32:40.638Z,59.08
2019-02-07T09:35:28.982Z,59.18
2019-02-07T09:38:16.963Z,59.29
2019-02-07T09:41:06.179Z,59.37
2019-02-07T09:43:45.429Z,59.00
2019-02-07T09:46:46.753Z,58.54
2019-02-07T09:49:37.439Z,58.89
2019-02-07T09:52:35.961Z,59.18
2019-02-07T09:55:25.541Z,58.86
2019-02-07T09:58:14.930Z,60.26
2019-02-07T10:01:16.959Z,60.29
2019-02-07T10:04:04.810Z,60.66
2019-02-07T10:06:53.529Z,60.79
2019-02-07T10:10:00.901Z,62.30
2019-02-07T10:12:52.175Z,63.33
2019-02-07T10:15:37.853Z,64.57
2019-02-07T10:18:33.115Z,66.48
2019-02-07T10:21:14.835Z,67.63
2019-02-07T10:24:02.883Z,67.87
2019-02-07T10:26:51.103Z,68.71
2019-02-07T10:29:46.790Z,70.09
2019-02-07T10:32:34.579Z,70.32
2019-02-07T10:35:31.455Z,70.72
2019-02-07T10:38:17.750Z,71.46
2019-02-07T10:41:12.198Z,71.14
2019-02-07T10:44:00.350Z,72.03
2019-02-07T10:46:58.905Z,73.92
2019-02-07T10:49:58.700Z,75.25
2019-02-07T10:52:43.816Z,76.79
2019-02-07T10:55:20.314Z,77.35
2019-02-07T10:58:04.219Z,76.70
2019-02-07T11:00:52.748Z,76.75
2019-02-07T11:03:41.986Z,76.60
2019-02-07T11:06:30.208Z,78.03
2019-02-07T11:09:19.358Z,78.57
2019-02-07T11:12:09.137Z,78.89
2019-02-07T11:15:10.513Z,79.71
2019-02-07T11:17:58.499Z,80.55
2019-02-07T11:20:59.992Z,81.45
2019-02-07T11:23:44.549Z,82.71
2019-02-07T11:26:27.582Z,82.68
2019-02-07T11:29:30.508Z,82.53
2019-02-07T11:32:13.954Z,82.49
2019-02-07T11:35:07.270Z,82.81
2019-02-07T11:38:02.810Z,81.19
2019-02-07T11:40:55.167Z,81.15
2019-02-07T11:43:50.154Z,81.68
2019-02-07T11:46:37.446Z,81.30
2019-02-07T11:49:15.023Z,81.40
2019-02-07T11:51:58.662Z,81.81
2019-02-07T11:54:49.391Z,82.13
2019-02-07T11:57:41.584Z,82.58
2019-02-07T12:00:57.047Z,82.39
2019-02-07T12:03:45.106Z,82.58
2019-02-07T12:06:26.417Z,83.68
2019-02-07T12:09:05.249Z,83.09
2019-02-07T12:11:57.391Z,83.32
2019-02-07T12:14:52.947Z,83.76
2019-02-07T12:17:42.241Z,83.61
2019-02-07T12:20:26.131Z,84.05
2019-02-07T12:23:14.179Z,83.67
2019-02-07T12:26:02.363Z,83.47
2019-02-07T12:28:51.432Z,82.83
2019-02-07T12:31:40.660Z,81.93
2019-02-07T12:34:30.857Z,81.89
2019-02-07T12:37:20.242Z,81.82
2019-02-07T12:40:12.543Z,81.95
2019-02-07T12:42:52.218Z,80.78
2019-02-07T12:45:41.495Z,80.12
2019-02-07T12:48:29.643Z,80.99
2019-02-07T12:51:18.941Z,80.38
2019-02-07T12:54:07.325Z,80.12
2019-02-07T12:56:55.558Z,79.72
2019-02-07T12:59:50.884Z,80.47
2019-02-07T13:02:45.785Z,80.65
2019-02-07T13:05:35.044Z,80.15
2019-02-07T13:08:23.529Z,80.65
2019-02-07T13:11:10.143Z,79.95
2019-02-07T13:14:01.602Z,79.63
2019-02-07T13:16:50.791Z,80.01
2019-02-07T13:19:40.908Z,80.37
2019-02-07T13:22:28.524Z,80.24
2019-02-07T13:25:23.833Z,79.97
2019-02-07T13:28:31.067Z,80.18
2019-02-07T13:31:26.562Z,80.13
2019-02-07T13:34:08.592Z,80.00
2019-02-07T13:36:49.717Z,80.58
2019-02-07T13:39:38.896Z,79.97
2019-02-07T13:42:37.584Z,79.54
2019-02-07T13:45:32.532Z,80.91
2019-02-07T13:48:19.250Z,81.24
2019-02-07T13:51:08.475Z,81.27
2019-02-07T13:53:46.829Z,80.91
2019-02-07T13:56:45.235Z,80.36
2019-02-07T13:59:40.369Z,81.02
2019-02-07T14:02:36.831Z,81.28
2019-02-07T14:05:33.732Z,81.55
2019-02-07T14:08:38.049Z,81.41
2019-02-07T14:11:11.363Z,80.90
2019-02-07T14:14:16.013Z,80.77
2019-02-07T14:16:55.840Z,80.83
2019-02-07T14:19:45.127Z,80.66
2019-02-07T14:22:33.285Z,79.66
2019-02-07T14:25:25.740Z,79.91
2019-02-07T14:28:20.718Z,79.43
2019-02-07T14:31:16.122Z,80.15
2019-02-07T14:34:05.273Z,80.31
2019-02-07T14:36:57.523Z,81.29
2019-02-07T14:39:41.506Z,81.60
2019-02-07T14:42:30.974Z,81.88
2019-02-07T14:45:18.069Z,81.92
2019-02-07T14:47:48.518Z,81.96
2019-02-07T14:50:19.802Z,82.58
2019-02-07T14:52:50.235Z,83.38
2019-02-07T14:55:20.659Z,83.06
2019-02-07T14:57:51.101Z,83.33
2019-02-07T15:00:24.482Z,84.42
2019-02-07T15:02:55.045Z,85.53
2019-02-07T15:05:25.482Z,86.84
2019-02-07T15:07:55.869Z,87.74
2019-02-07T15:10:26.183Z,87.36
2019-02-07T15:12:56.608Z,87.49
2019-02-07T15:15:26.947Z,88.00
2019-02-07T15:17:57.443Z,89.04
2019-02-07T15:20:27.889Z,89.43
2019-02-07T15:22:58.865Z,90.23
2019-02-07T15:25:29.183Z,90.62
2019-02-07T15:27:59.582Z,91.12
2019-02-07T15:30:29.977Z,91.30
2019-02-07T15:33:00.321Z,92.21
2019-02-07T15:35:34.904Z,92.34
2019-02-07T15:38:05.604Z,92.84
2019-02-07T15:40:36.084Z,93.74
2019-02-07T15:43:06.493Z,93.90
2019-02-07T15:45:37.084Z,93.95
2019-02-07T15:48:07.515Z,95.77
2019-02-07T15:50:38.518Z,95.50
2019-02-07T15:53:09.003Z,95.20
2019-02-07T15:55:39.389Z,95.35
2019-02-07T15:58:09.909Z,95.55
2019-02-07T16:01:14.581Z,94.90
2019-02-07T16:04:09.449Z,95.45
2019-02-07T16:06:40.286Z,96.54
2019-02-07T16:09:11.512Z,97.25
2019-02-07T16:11:42.892Z,96.92
2019-02-07T16:14:13.627Z,95.95
2019-02-07T16:16:43.995Z,96.04
2019-02-07T16:19:14.503Z,95.29
2019-02-07T16:21:44.987Z,95.63
2019-02-07T16:24:16.021Z,94.96
2019-02-07T16:26:46.587Z,94.22
2019-02-07T16:29:17.009Z,94.59
2019-02-07T16:31:47.306Z,95.24
2019-02-07T16:34:18.873Z,95.70
2019-02-07T16:36:49.785Z,94.81
2019-02-07T16:39:21.889Z,95.28
2019-02-07T16:41:52.373Z,95.48
2019-02-07T16:44:22.920Z,95.38
2019-02-07T16:46:54.441Z,95.23
2019-02-07T16:49:25.147Z,95.87
2019-02-07T16:51:55.304Z,95.19
2019-02-07T16:54:25.684Z,94.69
2019-02-07T16:56:55.900Z,94.25
2019-02-07T16:59:26.203Z,93.51
2019-02-07T17:01:56.682Z,93.65
2019-02-07T17:04:27.151Z,92.97
2019-02-07T17:06:57.651Z,93.61
2019-02-07T17:09:30.903Z,94.12
2019-02-07T17:12:01.280Z,94.56
2019-02-07T17:14:32.022Z,95.48
2019-02-07T17:17:02.345Z,96.32
2019-02-07T17:19:32.630Z,96.96
2019-02-07T17:22:03.016Z,97.64
2019-02-07T17:24:33.479Z,97.98
2019-02-07T17:27:04.106Z,96.99
2019-02-07T17:29:34.747Z,97.47
2019-02-07T17:32:05.596Z,97.56
2019-02-07T17:34:35.932Z,97.74
2019-02-07T17:37:06.251Z,96.69
2019-02-07T17:39:37.657Z,95.64
2019-02-07T17:42:08.114Z,94.87
2019-02-07T17:44:38.540Z,95.56
2019-02-07T17:47:10.492Z,96.12
2019-02-07T17:49:40.942Z,95.64
2019-02-07T17:52:11.322Z,95.22
2019-02-07T17:54:42.015Z,94.52
2019-02-07T17:57:12.310Z,94.74
2019-02-07T17:59:42.633Z,95.12
2019-02-07T18:02:14.423Z,95.27
2019-02-07T18:04:44.788Z,94.94
2019-02-07T18:07:15.358Z,94.01
2019-02-07T18:09:45.785Z,93.28
2019-02-07T18:12:16.131Z,92.08
2019-02-07T18:14:46.609Z,92.26
2019-02-07T18:17:21.193Z,93.11
2019-02-07T18:19:51.643Z,92.15
2019-02-07T18:22:22.537Z,93.09
2019-02-07T18:24:52.940Z,93.20
2019-02-07T18:27:23.402Z,92.32
2019-02-07T18:29:53.820Z,92.71
2019-02-07T18:32:24.235Z,93.14
2019-02-07T18:34:55.720Z,93.73
2019-02-07T18:37:26.124Z,93.61
2019-02-07T18:39:56.487Z,93.73
2019-02-07T18:42:26.870Z,94.23
2019-02-07T18:44:57.126Z,95.26
2019-02-07T18:47:27.342Z,95.47
2019-02-07T18:49:58.185Z,96.46
2019-02-07T18:52:28.667Z,96.93
2019-02-07T18:54:59.171Z,97.68
2019-02-07T18:57:29.484Z,98.61
2019-02-07T18:59:59.753Z,99.69
2019-02-07T19:02:30.237Z,99.32
2019-02-07T19:05:00.858Z,98.11
2019-02-07T19:07:32.960Z,98.69
2019-02-07T19:10:04.475Z,98.55
2019-02-07T19:12:34.828Z,98.36
2019-02-07T19:15:08.159Z,97.97
2019-02-07T19:17:38.777Z,97.12
2019-02-07T19:20:14.292Z,97.29
2019-02-07T19:22:44.699Z,97.38
2019-02-07T19:25:15.841Z,98.01
2019-02-07T19:27:46.360Z,97.97
2019-02-07T19:30:29.274Z,97.23
2019-02-07T19:33:00.006Z,95.22
2019-02-07T19:35:30.449Z,94.56
2019-02-07T19:38:00.841Z,94.12
2019-02-07T19:40:31.069Z,94.25
2019-02-07T19:43:01.718Z,92.83
2019-02-07T19:45:32.410Z,92.41
2019-02-07T19:48:02.959Z,93.41
2019-02-07T19:50:33.247Z,93.32
2019-02-07T19:53:03.686Z,93.62
2019-02-07T19:55:34.366Z,92.37
2019-02-07T19:58:05.092Z,93.61
2019-02-07T20:00:39.257Z,93.26
2019-02-07T20:03:08.705Z,93.91
2019-02-07T20:05:39.568Z,94.41
2019-02-07T20:08:10.389Z,95.97
2019-02-07T20:10:41.327Z,96.21
2019-02-07T20:13:11.774Z,97.22
2019-02-07T20:15:43.904Z,97.28
2019-02-07T20:18:14.488Z,96.11
2019-02-07T20:20:44.998Z,95.90
2019-02-07T20:23:15.491Z,96.30
2019-02-07T20:25:45.984Z,96.40
2019-02-07T20:28:16.467Z,96.56
2019-02-07T20:33:17.681Z,97.18
2019-02-07T20:35:48.228Z,96.71
2019-02-07T20:38:18.690Z,95.82
2019-02-07T20:40:49.277Z,95.25
2019-02-07T20:43:19.907Z,95.31
2019-02-07T20:45:51.334Z,95.48
2019-02-07T20:48:23.908Z,95.67
2019-02-07T20:50:54.662Z,96.17
2019-02-07T20:53:26.570Z,94.94
2019-02-07T20:55:57.316Z,94.64
2019-02-07T20:58:28.236Z,94.17
2019-02-07T21:00:58.973Z,93.64
2019-02-07T21:03:29.607Z,93.38
2019-02-07T21:06:00.116Z,93.34
2019-02-07T21:08:31.924Z,93.15
2019-02-07T21:11:02.638Z,92.20
2019-02-07T21:13:33.210Z,91.79
2019-02-07T21:16:03.944Z,91.73
2019-02-07T21:18:37.804Z,90.91
2019-02-07T21:21:08.420Z,90.09
2019-02-07T21:23:38.912Z,89.90
2019-02-07T21:26:09.614Z,90.49
2019-02-07T21:28:40.315Z,90.00
2019-02-07T21:31:11.054Z,90.04
2019-02-07T21:33:47.793Z,90.20
2019-02-07T21:36:18.547Z,90.65
2019-02-07T21:38:49.024Z,90.86
2019-02-07T21:41:19.730Z,91.49
2019-02-07T21:43:50.195Z,91.84
2019-02-07T21:46:21.876Z,91.98
2019-02-07T21:48:52.277Z,91.94
2019-02-07T21:51:23.104Z,91.58
2019-02-07T21:53:53.564Z,91.45
2019-02-07T21:56:24.014Z,91.06
2019-02-07T21:58:54.534Z,90.17
2019-02-07T22:01:24.998Z,89.38
2019-02-07T22:03:55.449Z,88.99
2019-02-07T22:06:26.471Z,89.40
2019-02-07T22:08:57.130Z,89.18
2019-02-07T22:11:27.856Z,88.54
2019-02-07T22:13:59.381Z,88.11
2019-02-07T22:16:29.876Z,89.36
2019-02-07T22:19:01.657Z,89.72
2019-02-07T22:21:32.201Z,89.61
2019-02-07T22:24:03.657Z,89.99
2019-02-07T22:26:34.251Z,89.92
2019-02-07T22:29:04.813Z,90.08
2019-02-07T22:31:36.580Z,89.25
2019-02-07T22:34:07.265Z,89.68
2019-02-07T22:36:37.719Z,88.76
2019-02-07T22:39:09.500Z,88.48
2019-02-07T22:41:40.937Z,88.04
2019-02-07T22:44:11.510Z,87.61
2019-02-07T22:46:42.006Z,87.34
2019-02-07T22:49:12.603Z,87.42
2019-02-07T22:51:43.058Z,87.29
2019-02-07T22:54:13.573Z,87.69
2019-02-07T22:56:45.838Z,87.41
2019-02-07T22:59:17.251Z,87.30
2019-02-07T23:01:53.057Z,87.10
2019-02-07T23:04:25.518Z,87.18
2019-02-07T23:06:55.983Z,87.90
2019-02-07T23:09:26.312Z,88.17
2019-02-07T23:11:57.111Z,88.07
2019-02-07T23:14:27.494Z,88.35
2019-02-07T23:16:57.915Z,88.22
2019-02-07T23:19:28.410Z,87.39
2019-02-07T23:21:58.837Z,87.50
2019-02-07T23:24:29.256Z,87.10
2019-02-07T23:26:59.473Z,87.49
2019-02-07T23:29:29.759Z,87.87
2019-02-07T23:32:00.100Z,88.27
2019-02-07T23:34:30.404Z,88.20
2019-02-07T23:37:00.714Z,88.41
2019-02-07T23:39:31.308Z,88.67
2019-02-07T23:42:01.718Z,88.89
2019-02-07T23:44:32.126Z,88.52
2019-02-07T23:47:02.497Z,88.67
2019-02-07T23:49:32.651Z,89.24
2019-02-07T23:52:02.930Z,89.53
2019-02-07T23:54:33.721Z,90.08
2019-02-07T23:57:04.326Z,90.16
2019-02-07T23:59:34.660Z,91.06
